Time;durP1;ratioP1;P1;durP2;ratioP2;P2;SDS_P1;SDS_P2;PMS_P1;PMS_P2;Temp;Humidity;BMP_temperature;BMP_pressure;BME280_temperature;BME280_humidity;BME280_pressure;Samples;Min_cycle;Max_cycle;Signal;HPM_P1;HPM_P2
2021/08/22 00:00:46;;;;;;;4.87;4.47;;;;;;;16.13;97.50;101284.88;2106966;28;20024;-60
2021/08/22 00:01:46;;;;;;;5.17;4.77;;;;;;;16.11;97.63;101289.38;2106943;28;20047;-60
2021/08/22 00:02:47;;;;;;;6.67;5.20;;;;;;;16.10;97.81;101287.69;2106964;28;20020;-59
2021/08/22 00:03:47;;;;;;;5.13;4.63;;;;;;;16.06;97.50;101280.91;2106953;28;20035;-60
2021/08/22 00:04:47;;;;;;;6.57;4.50;;;;;;;16.06;97.84;101284.41;2106971;28;20056;-60
2021/08/22 00:05:47;;;;;;;5.97;5.37;;;;;;;16.05;97.60;101273.97;2106758;28;20024;-62
2021/08/22 00:06:47;;;;;;;6.37;4.90;;;;;;;16.05;97.72;101281.88;2106305;28;20035;-59
2021/08/22 00:07:48;;;;;;;4.77;4.37;;;;;;;16.06;97.75;101289.66;2106375;28;20090;-60
2021/08/22 00:08:48;;;;;;;6.53;5.05;;;;;;;16.09;97.71;101286.84;2106899;28;20051;-60
2021/08/22 00:09:49;;;;;;;4.67;4.27;;;;;;;16.08;97.78;101285.16;2106853;28;20015;-59
2021/08/22 00:10:49;;;;;;;5.40;3.88;;;;;;;16.07;97.84;101278.19;2106766;28;20024;-59
2021/08/22 00:11:50;;;;;;;4.73;4.27;;;;;;;16.09;97.53;101288.63;2106767;28;20051;-59
2021/08/22 00:12:50;;;;;;;5.95;5.18;;;;;;;16.06;97.61;101276.50;2106969;28;20031;-59
2021/08/22 00:13:51;;;;;;;6.32;5.20;;;;;;;16.07;97.91;101277.34;2106982;28;20031;-59
2021/08/22 00:14:51;;;;;;;7.37;4.80;;;;;;;16.07;97.85;101279.97;2106909;28;20389;-60
2021/08/22 00:15:51;;;;;;;6.30;5.70;;;;;;;16.06;98.01;101275.66;2106843;28;20081;-60
2021/08/22 00:16:52;;;;;;;7.40;5.63;;;;;;;16.06;98.00;101278.28;2106196;28;20024;-60
2021/08/22 00:17:52;;;;;;;6.23;5.63;;;;;;;16.04;98.06;101274.88;2106230;28;20442;-60
2021/08/22 00:18:52;;;;;;;5.87;5.33;;;;;;;16.04;97.61;101277.50;2106890;28;20056;-60
2021/08/22 00:19:52;;;;;;;6.10;5.63;;;;;;;16.05;97.77;101279.22;2106923;28;20051;-59
2021/08/22 00:20:53;;;;;;;5.87;5.37;;;;;;;16.02;97.88;101271.50;2106977;28;20059;-60
2021/08/22 00:21:53;;;;;;;6.43;5.83;;;;;;;16.01;97.68;101269.81;2106861;28;20031;-60
2021/08/22 00:22:53;;;;;;;11.40;5.23;;;;;;;16.01;97.90;101269.81;2106201;28;20085;-60
2021/08/22 00:23:53;;;;;;;4.93;4.50;;;;;;;16.00;97.89;101270.72;2106278;28;20035;-59
2021/08/22 00:24:54;;;;;;;5.97;5.40;;;;;;;15.98;97.95;101267.34;2106810;28;20092;-59
2021/08/22 00:25:54;;;;;;;6.97;4.80;;;;;;;15.96;97.77;101265.69;2106835;28;20034;-59
2021/08/22 00:26:55;;;;;;;5.18;4.78;;;;;;;15.96;97.77;101268.31;2106193;28;20503;-59
2021/08/22 00:27:55;;;;;;;7.20;4.50;;;;;;;15.98;97.57;101267.34;2106303;28;20024;-59
2021/08/22 00:28:55;;;;;;;7.23;4.97;;;;;;;15.96;97.64;101270.06;2106786;28;20281;-59
2021/08/22 00:29:55;;;;;;;5.83;5.23;;;;;;;15.95;98.04;101271.84;2106074;28;20110;-60
2021/08/22 00:30:56;;;;;;;5.30;4.83;;;;;;;15.95;98.04;101263.97;2106183;28;20024;-60
2021/08/22 00:31:56;;;;;;;5.27;4.80;;;;;;;15.97;98.04;101271.75;2106154;28;20021;-61
2021/08/22 00:32:56;;;;;;;5.70;5.20;;;;;;;15.97;98.11;101277.03;2106208;28;20116;-59
2021/08/22 00:33:56;;;;;;;4.83;4.43;;;;;;;15.98;97.72;101267.34;2106775;28;20039;-60
2021/08/22 00:34:57;;;;;;;5.03;4.60;;;;;;;15.98;97.85;101270.84;2106789;28;20035;-59
2021/08/22 00:35:57;;;;;;;6.00;5.50;;;;;;;15.99;97.85;101274.31;2106847;28;20075;-58
2021/08/22 00:36:57;;;;;;;5.10;4.70;;;;;;;16.00;97.90;101268.09;2106815;28;20032;-60
2021/08/22 00:37:59;;;;;;;5.50;5.03;;;;;;;16.01;97.89;101272.44;2106743;28;20499;-60
2021/08/22 00:38:59;;;;;;;5.13;4.68;;;;;;;16.01;98.00;101275.91;2106725;28;20571;-59
2021/08/22 00:40:00;;;;;;;4.93;4.53;;;;;;;16.02;98.02;101268.88;2106684;28;20077;-61
2021/08/22 00:41:03;;;;;;;5.53;5.00;;;;;;;16.01;98.04;101275.09;2106710;28;20027;-60
2021/08/22 00:42:03;;;;;;;4.97;4.47;;;;;;;16.02;97.86;101271.50;2106641;28;20032;-61
2021/08/22 00:43:05;;;;;;;5.35;4.85;;;;;;;16.01;97.83;101272.44;2106778;28;20069;-61
2021/08/22 00:44:06;;;;;;;5.47;4.97;;;;;;;16.02;98.28;101276.78;2106748;28;20073;-59
2021/08/22 00:45:09;;;;;;;6.57;4.85;;;;;;;16.03;98.35;101273.19;2106744;28;20020;-59
2021/08/22 00:46:09;;;;;;;6.97;5.75;;;;;;;16.04;98.27;101273.09;2106106;28;20027;-59
2021/08/22 00:47:10;;;;;;;6.38;5.78;;;;;;;16.04;97.99;101274.88;2106212;28;20094;-60
2021/08/22 00:48:12;;;;;;;5.90;5.23;;;;;;;16.04;97.78;101272.25;2106670;28;20023;-59
2021/08/22 00:49:12;;;;;;;5.93;5.22;;;;;;;16.02;98.04;101267.09;2106761;28;20065;-60
2021/08/22 00:50:18;;;;;;;5.70;5.15;;;;;;;16.02;98.21;101267.09;2106691;28;20534;-60
2021/08/22 00:51:18;;;;;;;6.68;6.05;;;;;;;16.03;98.49;101260.03;2106638;28;20036;-60
2021/08/22 00:52:19;;;;;;;6.30;5.70;;;;;;;16.03;98.26;101262.66;2106698;28;20020;-61
2021/08/22 00:53:19;;;;;;;6.70;6.10;;;;;;;16.04;97.93;101264.34;2106780;28;20024;-59
2021/08/22 00:54:19;;;;;;;6.57;5.77;;;;;;;16.04;98.22;101262.56;2106548;28;20362;-60
2021/08/22 00:55:23;;;;;;;6.53;6.03;;;;;;;16.07;98.45;101261.53;2106765;28;20538;-60
2021/08/22 00:56:23;;;;;;;5.68;5.03;;;;;;;16.06;98.12;101263.34;2105986;28;20285;-60
2021/08/22 00:57:23;;;;;;;6.60;6.10;;;;;;;16.05;97.91;101255.53;2106173;28;20401;-60
2021/08/22 00:58:24;;;;;;;6.90;6.30;;;;;;;16.03;98.12;101260.03;2106694;28;20028;-60
2021/08/22 00:59:24;;;;;;;6.97;6.38;;;;;;;16.04;98.32;101262.56;2106698;28;20057;-60
2021/08/22 01:00:25;;;;;;;6.77;5.60;;;;;;;16.04;98.20;101261.72;2105970;28;20028;-60
2021/08/22 01:01:25;;;;;;;6.63;6.03;;;;;;;16.05;98.29;101263.44;2106514;28;20099;-60
2021/08/22 01:02:29;;;;;;;6.33;5.73;;;;;;;16.03;97.98;101257.41;2108308;28;20020;-61
2021/08/22 01:03:55;;;;;;;8.68;6.53;;;;;;;16.01;98.02;101252.22;2108359;28;20048;-61
2021/08/22 01:05:18;;;;;;;6.80;6.20;;;;;;;16.01;98.15;101256.66;2108354;28;20089;-59
2021/08/22 01:06:38;;;;;;;7.05;6.35;;;;;;;16.00;98.25;101255.78;2074168;28;20399;-59
2021/08/22 01:07:47;;;;;;;6.63;5.80;;;;;;;16.00;98.29;101249.69;2107646;28;20473;-60
2021/08/22 01:08:57;;;;;;;8.05;6.47;;;;;;;15.98;97.99;101262.09;2107795;28;20468;-60
2021/08/22 01:09:58;;;;;;;6.55;5.85;;;;;;;16.00;98.03;101258.44;2108259;28;20032;-61
2021/08/22 01:11:04;;;;;;;7.40;6.28;;;;;;;15.99;98.04;101254.13;2108250;28;20016;-60
2021/08/22 01:12:10;;;;;;;7.65;6.95;;;;;;;15.99;98.40;101261.16;2108150;28;20051;-60
2021/08/22 01:13:16;;;;;;;6.18;5.65;;;;;;;16.01;98.14;101256.66;2108229;28;20027;-59
2021/08/22 01:14:24;;;;;;;7.65;6.88;;;;;;;16.00;97.99;101253.16;2108216;28;20031;-60
2021/08/22 01:15:25;;;;;;;7.97;6.32;;;;;;;16.00;98.36;101255.78;2108316;28;20053;-60
2021/08/22 01:16:30;;;;;;;7.38;6.78;;;;;;;16.01;98.19;101251.41;2108248;28;20484;-60
2021/08/22 01:17:34;;;;;;;7.80;7.10;;;;;;;16.02;98.11;101253.94;2107348;28;20020;-60
2021/08/22 01:18:38;;;;;;;7.63;6.88;;;;;;;16.01;98.60;101248.75;2107629;28;20032;-60
2021/08/22 01:19:43;;;;;;;8.70;7.80;;;;;;;16.01;98.38;101256.66;2108403;28;20024;-59
2021/08/22 01:21:02;;;;;;;7.97;7.25;;;;;;;16.01;98.26;101248.75;2108277;28;20112;-59
2021/08/22 01:22:06;;;;;;;8.65;6.80;;;;;;;16.01;98.20;101251.41;2107569;28;20044;-59
2021/08/22 01:23:08;;;;;;;7.97;7.20;;;;;;;16.03;98.35;101254.75;2107644;28;20028;-60
2021/08/22 01:24:08;;;;;;;8.77;7.78;;;;;;;16.01;98.41;101254.84;2108260;28;20038;-60
2021/08/22 01:25:10;;;;;;;8.40;7.70;;;;;;;16.02;98.24;101250.44;2108139;28;20078;-60
2021/08/22 01:26:13;;;;;;;9.25;8.38;;;;;;;16.03;98.20;101254.75;2108213;28;20055;-60
2021/08/22 01:27:15;;;;;;;7.80;7.10;;;;;;;16.04;98.57;101256.44;2108179;28;20043;-60
2021/08/22 01:28:16;;;;;;;8.40;7.55;;;;;;;16.03;98.38;101245.09;2108178;28;20415;-60
2021/08/22 01:29:17;;;;;;;9.70;8.15;;;;;;;16.06;98.49;101246.69;2108044;28;20020;-60
2021/08/22 01:30:18;;;;;;;;;;;;;;;16.06;98.44;101255.44;2108568;28;20122;-58
2021/08/22 01:31:25;;;;;;;7.45;6.57;;;;;;;16.07;98.37;101241.34;2108151;28;19919;-58
2021/08/22 01:32:40;;;;;;;8.35;7.55;;;;;;;16.08;98.67;101245.66;2108147;28;20026;-61
2021/08/22 01:33:41;;;;;;;8.85;7.95;;;;;;;16.07;98.65;101246.59;2108130;28;20089;-60
2021/08/22 01:34:42;;;;;;;10.02;9.13;;;;;;;16.10;98.71;101256.09;2108124;28;20024;-60
2021/08/22 01:35:44;;;;;;;9.68;8.77;;;;;;;16.10;98.22;101250.84;2108011;28;20481;-59
2021/08/22 01:36:45;;;;;;;10.02;9.02;;;;;;;16.10;98.66;101250.84;2108071;28;20036;-60
2021/08/22 01:37:48;;;;;;;10.32;9.20;;;;;;;16.11;98.41;101252.53;2108046;28;20028;-58
2021/08/22 01:38:49;;;;;;;10.68;9.65;;;;;;;16.12;98.78;101248.97;2108067;28;20052;-59
2021/08/22 01:39:50;;;;;;;13.98;9.73;;;;;;;16.12;98.67;101254.25;2108089;28;20483;-60
2021/08/22 01:40:51;;;;;;;11.18;10.02;;;;;;;16.12;98.51;101259.50;2107996;28;20032;-60
2021/08/22 01:41:53;;;;;;;12.00;9.93;;;;;;;16.14;98.42;101248.84;2107987;28;20020;-59
2021/08/22 01:42:53;;;;;;;11.77;10.48;;;;;;;16.15;98.58;101259.28;2108152;28;20481;-59
2021/08/22 01:43:54;;;;;;;10.88;9.77;;;;;;;16.17;98.53;101254.81;2107949;28;20040;-60
2021/08/22 01:44:55;;;;;;;10.30;8.40;;;;;;;16.20;98.48;101257.25;2108062;28;20032;-59
2021/08/22 01:45:57;;;;;;;12.63;11.30;;;;;;;16.23;98.55;101253.59;2108012;28;20039;-59
2021/08/22 01:46:58;;;;;;;12.98;11.77;;;;;;;16.24;98.83;101251.78;2108075;28;20046;-59
2021/08/22 01:47:59;;;;;;;11.00;9.88;;;;;;;16.26;98.32;101252.56;2108002;28;20036;-59
2021/08/22 01:49:03;;;;;;;12.93;11.57;;;;;;;16.26;98.34;101255.19;2107987;28;20043;-60
2021/08/22 01:50:05;;;;;;;14.13;12.02;;;;;;;16.27;98.90;101256.88;2107278;28;20489;-61
2021/08/22 01:51:06;;;;;;;14.27;12.70;;;;;;;16.29;98.74;101257.63;2107326;28;20024;-61
2021/08/22 01:52:08;;;;;;;16.00;13.85;;;;;;;16.30;98.42;101256.69;2108025;28;20040;-61
2021/08/22 01:53:08;;;;;;;18.65;14.80;;;;;;;16.29;98.77;101253.19;2108040;28;20026;-60
2021/08/22 01:54:10;;;;;;;18.55;15.25;;;;;;;16.29;98.51;101249.75;2107259;28;20031;-60
2021/08/22 01:55:11;;;;;;;16.25;14.57;;;;;;;16.29;98.66;101249.75;2107234;28;20023;-60
2021/08/22 01:56:11;;;;;;;18.85;16.23;;;;;;;16.28;98.67;101248.88;2107370;28;20058;-60
2021/08/22 01:57:11;;;;;;;18.90;15.60;;;;;;;16.28;98.55;101248.88;2107944;28;20062;-60
2021/08/22 01:58:12;;;;;;;21.17;17.93;;;;;;;16.29;98.66;101255.00;2107967;28;20028;-59
2021/08/22 01:59:12;;;;;;;20.33;17.60;;;;;;;16.29;98.48;101260.28;2107934;28;20028;-59
2021/08/22 02:00:13;;;;;;;20.07;17.70;;;;;;;16.29;98.39;101252.38;2107938;28;20016;-60
2021/08/22 02:01:14;;;;;;;;;;;;;;;16.30;98.75;101248.78;2108358;28;20020;-60
2021/08/22 02:02:15;;;;;;;23.67;15.97;;;;;;;16.33;98.55;101252.06;2107906;28;19911;-59
2021/08/22 02:03:21;;;;;;;21.85;16.90;;;;;;;16.34;98.40;101252.94;2107900;28;20058;-60
2021/08/22 02:04:35;;;;;;;23.73;19.65;;;;;;;16.35;98.72;101254.63;2107833;28;20486;-60
2021/08/22 02:05:37;;;;;;;22.73;18.30;;;;;;;16.35;98.63;101259.88;2107891;28;20032;-60
2021/08/22 02:06:49;;;;;;;27.92;19.90;;;;;;;16.34;98.89;101258.19;2107747;28;20031;-59
2021/08/22 02:07:49;;;;;;;26.08;20.55;;;;;;;16.33;98.63;101259.16;2107822;28;20028;-59
2021/08/22 02:09:00;;;;;;;26.17;20.63;;;;;;;16.30;98.56;101261.97;2107846;28;20032;-60
2021/08/22 02:10:09;;;;;;;23.77;19.27;;;;;;;16.29;98.56;101265.53;2107142;28;20079;-60
2021/08/22 02:11:17;;;;;;;23.25;18.92;;;;;;;16.28;98.31;101263.84;2107242;28;20042;-60
2021/08/22 02:12:20;;;;;;;26.95;21.67;;;;;;;16.30;98.71;101267.22;2107719;28;20048;-60
2021/08/22 02:13:22;;;;;;;27.50;20.40;;;;;;;16.30;98.59;101262.81;2106762;28;20024;-60
2021/08/22 02:14:25;;;;;;;32.83;23.63;;;;;;;16.34;98.91;101268.72;2107904;28;20273;-60
2021/08/22 02:15:30;;;;;;;33.35;22.65;;;;;;;16.34;98.80;101260.84;2107716;28;20046;-60
2021/08/22 02:16:32;;;;;;;32.72;26.35;;;;;;;16.34;98.90;101263.47;2107776;28;20024;-61
2021/08/22 02:17:38;;;;;;;29.17;23.13;;;;;;;16.35;98.80;101262.53;2107791;28;20485;-61
2021/08/22 02:18:40;;;;;;;30.35;23.30;;;;;;;16.37;98.69;101268.56;2107676;28;20467;-60
2021/08/22 02:19:41;;;;;;;35.97;25.20;;;;;;;16.37;98.65;101273.81;2107661;28;20540;-60
2021/08/22 02:20:42;;;;;;;;;;;;;;;16.37;98.83;101263.28;2107433;28;20031;-60
2021/08/22 02:21:43;;;;;;;26.25;19.83;;;;;;;16.39;98.68;101264.03;2107168;28;19919;-60
2021/08/22 02:22:46;;;;;;;31.20;23.50;;;;;;;16.38;99.08;101264.97;2107784;28;20461;-59
2021/08/22 02:23:49;;;;;;;34.95;24.90;;;;;;;16.39;98.78;101257.94;2107736;28;20038;-61
2021/08/22 02:24:51;;;;;;;27.77;21.83;;;;;;;16.39;99.06;101263.19;2107691;28;20080;-60
2021/08/22 02:25:52;;;;;;;31.13;24.35;;;;;;;16.38;98.79;101262.34;2107740;28;20098;-59
2021/08/22 02:26:52;;;;;;;34.83;26.73;;;;;;;16.36;98.48;101264.22;2107723;28;20028;-60
2021/08/22 02:27:55;;;;;;;34.10;25.50;;;;;;;16.35;98.56;101254.63;2107670;28;20030;-59
2021/08/22 02:28:57;;;;;;;33.72;25.02;;;;;;;16.34;98.47;101259.06;2107000;28;20024;-59
2021/08/22 02:29:57;;;;;;;36.08;27.00;;;;;;;16.32;98.96;101255.66;2107076;28;20024;-59
2021/08/22 02:30:58;;;;;;;36.87;26.73;;;;;;;16.30;98.86;101257.56;2107509;28;20567;-60
2021/08/22 02:31:58;;;;;;;38.07;25.87;;;;;;;16.30;98.56;101256.69;2107676;28;20039;-60
2021/08/22 02:32:58;;;;;;;37.67;26.77;;;;;;;16.29;98.69;101261.09;2107619;28;20085;-59
2021/08/22 02:33:59;;;;;;;36.23;26.20;;;;;;;16.31;98.93;101261.00;2107673;28;20020;-59
2021/08/22 02:35:00;;;;;;;35.25;27.77;;;;;;;16.30;98.58;101256.69;2107536;28;20024;-60
2021/08/22 02:36:00;;;;;;;38.57;28.83;;;;;;;16.29;98.53;101260.28;2107750;28;20111;-60
2021/08/22 02:37:00;;;;;;;36.07;26.40;;;;;;;16.30;98.72;101254.06;2107569;28;20339;-59
2021/08/22 02:38:01;;;;;;;36.87;27.83;;;;;;;16.29;98.91;101260.28;2107590;28;20028;-60
2021/08/22 02:39:01;;;;;;;35.53;28.47;;;;;;;16.28;98.96;101263.84;2106908;28;20119;-59
2021/08/22 02:40:02;;;;;;;37.55;26.85;;;;;;;16.28;98.73;101263.84;2106950;28;20048;-59
2021/08/22 02:41:02;;;;;;;38.35;28.60;;;;;;;16.28;98.81;101263.84;2107653;28;20027;-59
2021/08/22 02:42:04;;;;;;;35.67;27.97;;;;;;;16.29;98.71;101268.19;2107561;28;20072;-60
2021/08/22 02:43:04;;;;;;;39.28;29.25;;;;;;;16.31;98.78;101266.28;2107561;28;20062;-60
2021/08/22 02:44:04;;;;;;;38.20;28.10;;;;;;;16.30;99.05;101264.59;2107529;28;20385;-61
2021/08/22 02:45:06;;;;;;;35.67;28.67;;;;;;;16.31;98.87;101258.38;2107533;28;20465;-61
2021/08/22 02:46:07;;;;;;;32.28;25.63;;;;;;;16.32;98.62;101266.19;2107618;28;20389;-60
2021/08/22 02:47:07;;;;;;;35.70;27.77;;;;;;;16.33;98.78;101267.88;2107551;28;20031;-60
2021/08/22 02:48:07;;;;;;;34.75;26.92;;;;;;;16.34;98.92;101274.00;2106843;28;20028;-59
2021/08/22 02:49:07;;;;;;;42.30;28.27;;;;;;;16.34;98.67;101274.00;2106864;28;20051;-60
2021/08/22 02:50:08;;;;;;;38.40;27.77;;;;;;;16.34;98.96;101266.97;2107463;28;20104;-61
2021/08/22 02:51:09;;;;;;;37.72;28.75;;;;;;;16.35;99.15;101270.41;2107506;28;20024;-60
2021/08/22 02:52:09;;;;;;;36.50;28.63;;;;;;;16.35;98.68;101270.41;2107458;28;20034;-60
2021/08/22 02:53:10;;;;;;;35.90;28.27;;;;;;;16.35;98.61;101268.66;2107534;28;20109;-60
2021/08/22 02:54:10;;;;;;;34.27;27.60;;;;;;;16.36;98.87;101277.41;2107482;28;20031;-59
2021/08/22 02:55:10;;;;;;;34.37;28.03;;;;;;;16.37;98.64;101263.28;2107262;28;20024;-59
2021/08/22 02:56:11;;;;;;;34.17;26.97;;;;;;;16.37;99.08;101272.97;2107481;28;20020;-60
2021/08/22 02:57:11;;;;;;;34.38;28.02;;;;;;;16.38;99.36;101272.88;2107438;28;20073;-59
2021/08/22 02:58:12;;;;;;;40.40;30.10;;;;;;;16.37;98.74;101265.91;2107397;28;20031;-60
2021/08/22 02:59:12;;;;;;;37.03;28.75;;;;;;;16.37;98.74;101272.97;2107480;28;20028;-60
2021/08/22 03:00:13;;;;;;;35.33;28.57;;;;;;;16.38;99.03;101264.97;2107446;28;20031;-60
2021/08/22 03:01:13;;;;;;;35.20;29.10;;;;;;;16.38;98.76;101269.41;2107485;28;20458;-60
2021/08/22 03:02:13;;;;;;;38.20;29.97;;;;;;;16.38;98.69;101264.97;2107405;28;20032;-60
2021/08/22 03:03:13;;;;;;;41.10;29.37;;;;;;;16.37;98.71;101263.28;2107504;28;20024;-60
2021/08/22 03:04:14;;;;;;;34.93;29.53;;;;;;;16.37;98.59;101267.69;2107319;28;20096;-61
2021/08/22 03:05:14;;;;;;;41.90;30.67;;;;;;;16.36;98.50;101261.59;2106625;28;20046;-60
2021/08/22 03:06:14;;;;;;;42.67;31.47;;;;;;;16.34;98.54;101264.31;2106801;28;20027;-60
2021/08/22 03:07:14;;;;;;;41.30;30.77;;;;;;;16.32;98.78;101268.00;2107275;28;20019;-61
2021/08/22 03:08:18;;;;;;;40.73;30.03;;;;;;;16.33;98.92;101261.78;2107351;28;20028;-60
2021/08/22 03:09:18;;;;;;;39.90;30.38;;;;;;;16.34;99.00;101263.47;2107293;28;20027;-60
2021/08/22 03:10:18;;;;;;;40.40;29.90;;;;;;;16.33;98.65;101262.59;2107341;28;20106;-60
2021/08/22 03:11:19;;;;;;;41.70;29.50;;;;;;;16.33;98.83;101256.50;2107312;28;20176;-60
2021/08/22 03:12:19;;;;;;;36.05;29.35;;;;;;;16.33;98.84;101259.16;2107330;28;20072;-61
2021/08/22 03:13:20;;;;;;;35.27;27.80;;;;;;;16.35;99.04;101262.53;2107319;28;20028;-60
2021/08/22 03:14:20;;;;;;;39.17;31.13;;;;;;;16.34;99.03;101252.94;2107451;28;20476;-60
2021/08/22 03:15:20;;;;;;;36.43;28.03;;;;;;;16.33;98.97;101252.06;2107169;28;20028;-60
2021/08/22 03:16:21;;;;;;;34.07;27.23;;;;;;;16.37;99.03;101265.06;2107391;28;20012;-60
2021/08/22 03:17:21;;;;;;;39.50;30.03;;;;;;;16.36;98.98;101264.22;2107302;28;20385;-60
2021/08/22 03:18:21;;;;;;;42.07;31.27;;;;;;;16.35;98.75;101265.16;2107316;28;20016;-61
2021/08/22 03:19:22;;;;;;;38.37;29.30;;;;;;;16.34;98.89;101264.31;2107182;28;20028;-59
2021/08/22 03:20:22;;;;;;;41.50;30.60;;;;;;;16.33;99.10;101264.41;2107254;28;20389;-60
2021/08/22 03:21:23;;;;;;;37.15;28.25;;;;;;;16.34;98.93;101264.31;2107228;28;20496;-60
2021/08/22 03:22:23;;;;;;;40.20;31.92;;;;;;;16.34;98.76;101258.19;2107327;28;20016;-60
2021/08/22 03:23:23;;;;;;;38.72;30.02;;;;;;;16.34;98.67;101253.78;2107226;28;20584;-59
2021/08/22 03:24:25;;;;;;;41.83;30.37;;;;;;;16.34;99.02;101256.44;2107026;28;20469;-61
2021/08/22 03:25:25;;;;;;;;;;;;;;;16.35;98.74;101254.63;2107692;28;20027;-60
2021/08/22 03:26:25;;;;;;;37.47;27.10;;;;;;;16.35;98.88;101260.75;2107238;28;20276;-60
2021/08/22 03:27:25;;;;;;;40.40;31.00;;;;;;;16.35;99.13;101257.25;2107243;28;20019;-59
2021/08/22 03:28:27;;;;;;;39.13;29.13;;;;;;;16.34;98.71;101252.94;2107298;28;20293;-60
2021/08/22 03:29:27;;;;;;;43.15;30.85;;;;;;;16.33;98.60;101256.50;2107175;28;20012;-60
2021/08/22 03:30:27;;;;;;;53.73;32.50;;;;;;;16.33;98.50;101252.06;2107214;28;20051;-59
2021/08/22 03:31:27;;;;;;;44.83;31.53;;;;;;;16.33;99.04;101256.50;2107064;28;20134;-60
2021/08/22 03:32:28;;;;;;;49.00;34.90;;;;;;;16.32;99.04;101255.66;2107150;28;20289;-59
2021/08/22 03:33:28;;;;;;;43.87;32.50;;;;;;;16.33;98.76;101257.34;2107199;28;20020;-60
2021/08/22 03:34:28;;;;;;;49.87;32.63;;;;;;;16.33;98.71;101261.78;2107107;28;20479;-60
2021/08/22 03:35:28;;;;;;;46.30;33.83;;;;;;;16.33;98.93;101259.16;2107114;28;20023;-60
2021/08/22 03:36:29;;;;;;;47.27;33.80;;;;;;;16.32;98.88;101257.47;2107175;28;20063;-61
2021/08/22 03:37:29;;;;;;;50.57;33.13;;;;;;;16.32;99.01;101260.09;2107110;28;20028;-60
2021/08/22 03:38:29;;;;;;;45.40;31.33;;;;;;;16.32;98.92;101260.09;2107029;28;20028;-62
2021/08/22 03:39:30;;;;;;;45.50;31.03;;;;;;;16.33;99.02;101265.25;2107050;28;20030;-60
2021/08/22 03:40:30;;;;;;;47.20;35.10;;;;;;;16.30;98.90;101256.69;2107141;28;20097;-59
2021/08/22 03:41:33;;;;;;;47.97;34.03;;;;;;;16.29;98.96;101262.91;2107092;28;20012;-59
2021/08/22 03:42:33;;;;;;;41.75;31.38;;;;;;;16.29;98.93;101268.19;2107136;28;20407;-60
2021/08/22 03:43:33;;;;;;;34.90;25.30;;;;;;;16.28;99.12;101263.84;2106365;28;20028;-60
2021/08/22 03:44:33;;;;;;;45.03;34.20;;;;;;;16.29;98.94;101258.47;2106516;28;20039;-59
2021/08/22 03:45:34;;;;;;;47.73;33.73;;;;;;;16.28;99.03;101259.41;2107056;28;20036;-60
2021/08/22 03:46:34;;;;;;;41.77;29.60;;;;;;;16.29;99.19;101260.28;2107181;28;20032;-59
2021/08/22 03:47:35;;;;;;;41.03;29.20;;;;;;;16.29;98.97;101260.28;2106915;28;20039;-60
2021/08/22 03:48:35;;;;;;;43.43;31.40;;;;;;;16.28;98.75;101266.50;2107132;28;20024;-60
2021/08/22 03:49:35;;;;;;;43.27;31.53;;;;;;;16.27;99.02;101267.41;2106327;28;20058;-61
2021/08/22 03:50:35;;;;;;;47.17;31.20;;;;;;;16.28;98.82;101269.13;2106472;28;20028;-61
2021/08/22 03:51:36;;;;;;;51.50;34.27;;;;;;;16.26;99.10;101260.44;2106300;28;20039;-60
2021/08/22 03:52:36;;;;;;;48.30;33.83;;;;;;;16.25;99.06;101264.03;2106534;28;20028;-59
2021/08/22 03:53:36;;;;;;;44.30;30.73;;;;;;;16.26;98.83;101268.34;2106972;28;20028;-61
2021/08/22 03:54:37;;;;;;;47.17;34.17;;;;;;;16.25;98.99;101274.56;2106995;28;20059;-59
2021/08/22 03:55:37;;;;;;;42.63;30.97;;;;;;;16.25;98.83;101264.03;2106295;28;20023;-59
2021/08/22 03:56:37;;;;;;;44.63;31.10;;;;;;;16.23;98.73;101269.38;2106372;28;20024;-60
2021/08/22 03:57:37;;;;;;;44.87;32.93;;;;;;;16.22;98.88;101278.22;2106445;28;20081;-60
2021/08/22 03:58:38;;;;;;;42.53;31.43;;;;;;;16.21;98.67;101272.09;2107012;28;20647;-59
2021/08/22 03:59:38;;;;;;;45.13;33.23;;;;;;;16.21;99.08;101280.00;2106981;28;20469;-60
2021/08/22 04:00:38;;;;;;;41.70;32.70;;;;;;;16.18;98.78;101274.09;2106934;28;20081;-61
2021/08/22 04:01:38;;;;;;;49.47;35.85;;;;;;;16.16;99.08;101276.81;2106947;28;20091;-60
2021/08/22 04:02:39;;;;;;;45.70;34.70;;;;;;;16.16;98.74;101270.69;2106957;28;20032;-61
2021/08/22 04:03:40;;;;;;;35.33;27.77;;;;;;;16.17;98.97;101277.63;2107021;28;20020;-60
2021/08/22 04:04:40;;;;;;;46.75;33.15;;;;;;;16.15;98.89;101277.72;2106945;28;20031;-59
2021/08/22 04:05:41;;;;;;;44.73;33.47;;;;;;;16.15;98.63;101276.91;2107023;28;20019;-59
2021/08/22 04:06:48;;;;;;;47.97;36.27;;;;;;;16.12;98.92;101272.66;2106910;28;20499;-60
2021/08/22 04:07:49;;;;;;;44.78;31.38;;;;;;;16.12;99.03;101275.31;2106795;28;20074;-59
2021/08/22 04:08:49;;;;;;;;;;;;;;;16.12;98.80;101274.44;2107361;28;20020;-60
2021/08/22 04:09:49;;;;;;;48.53;33.63;;;;;;;16.10;99.09;101271.91;2106896;28;20422;-60
2021/08/22 04:10:53;;;;;;;47.57;33.17;;;;;;;16.10;99.04;101271.91;2106196;28;20020;-60
2021/08/22 04:11:56;;;;;;;39.90;30.55;;;;;;;16.10;98.92;101271.91;2106172;28;20451;-61
2021/08/22 04:12:57;;;;;;;47.05;35.33;;;;;;;16.08;98.69;101269.34;2106889;28;20032;-61
2021/08/22 04:13:57;;;;;;;43.80;32.95;;;;;;;16.07;98.72;101266.81;2106947;28;20027;-62
2021/08/22 04:14:57;;;;;;;45.33;34.77;;;;;;;16.07;99.21;101277.34;2106845;28;20027;-60
2021/08/22 04:15:57;;;;;;;45.03;33.53;;;;;;;16.07;98.74;101266.81;2106270;28;20070;-60
2021/08/22 04:16:58;;;;;;;41.67;33.10;;;;;;;16.09;99.03;101270.22;2106417;28;20020;-60
2021/08/22 04:17:58;;;;;;;45.63;33.07;;;;;;;16.09;98.61;101273.66;2106937;28;20444;-60
2021/08/22 04:18:58;;;;;;;46.57;33.00;;;;;;;16.10;99.11;101282.44;2106166;28;20024;-60
2021/08/22 04:19:58;;;;;;;43.30;32.27;;;;;;;16.09;99.08;101268.41;2106159;28;20183;-60
2021/08/22 04:20:59;;;;;;;40.40;29.57;;;;;;;16.08;98.94;101269.34;2106960;28;20032;-61
2021/08/22 04:22:01;;;;;;;;;;;;;;;16.07;98.96;101272.94;2107285;28;20028;-60
2021/08/22 04:23:01;;;;;;;42.47;31.73;;;;;;;16.07;98.93;101272.94;2106846;28;19908;-60
2021/08/22 04:24:03;;;;;;;42.10;31.90;;;;;;;16.07;98.84;101267.66;2106843;28;20035;-60
2021/08/22 04:25:08;;;;;;;48.35;33.83;;;;;;;16.06;98.90;101267.75;2106768;28;20020;-62
2021/08/22 04:26:09;;;;;;;41.40;31.98;;;;;;;16.06;99.02;101275.66;2106713;28;20115;-60
2021/08/22 04:27:10;;;;;;;39.55;32.25;;;;;;;16.05;98.68;101273.97;2106851;28;20047;-60
2021/08/22 04:28:10;;;;;;;43.00;30.67;;;;;;;16.06;98.69;101265.13;2106814;28;20020;-59
2021/08/22 04:29:10;;;;;;;38.70;28.92;;;;;;;16.05;98.83;101273.97;2106821;28;20027;-61
2021/08/22 04:30:12;;;;;;;45.60;32.70;;;;;;;16.04;99.05;101274.88;2106842;28;20023;-60
2021/08/22 04:31:12;;;;;;;49.30;33.10;;;;;;;16.03;99.12;101271.41;2106726;28;20083;-59
2021/08/22 04:32:13;;;;;;;40.60;31.63;;;;;;;16.02;98.85;101268.88;2106709;28;20020;-59
2021/08/22 04:33:13;;;;;;;48.50;35.60;;;;;;;16.01;99.04;101267.19;2106781;28;20623;-60
2021/08/22 04:34:13;;;;;;;46.80;32.97;;;;;;;16.02;99.17;101268.88;2106747;28;20027;-60
2021/08/22 04:35:13;;;;;;;45.50;33.80;;;;;;;16.01;99.11;101273.28;2106721;28;20081;-60
2021/08/22 04:36:14;;;;;;;49.83;36.57;;;;;;;15.99;99.00;101271.69;2106199;28;20114;-59
2021/08/22 04:37:14;;;;;;;53.50;34.77;;;;;;;16.00;99.10;101278.63;2106715;28;20085;-61
2021/08/22 04:38:14;;;;;;;52.60;37.20;;;;;;;15.98;98.69;101272.63;2106754;28;20089;-60
2021/08/22 04:39:16;;;;;;;45.17;30.17;;;;;;;16.00;98.84;101276.00;2106717;28;20020;-60
2021/08/22 04:40:16;;;;;;;;;;;;;;;15.99;98.67;101277.81;2106506;28;20397;-61
2021/08/22 04:41:20;;;;;;;43.10;28.47;;;;;;;16.00;98.67;101276.00;2106152;28;20002;-61
2021/08/22 04:42:20;;;;;;;44.45;31.10;;;;;;;16.01;99.14;101277.72;2114107;28;20086;-60
2021/08/22 04:43:21;;;;;;;48.63;34.97;;;;;;;16.00;99.04;101278.63;2106025;28;20412;-61